createdAt,value
2023-01-09T20:03:05.772Z,47.34
2023-01-09T20:05:34.019Z,47.10
2023-01-09T20:08:05.865Z,46.97
2023-01-09T20:10:34.001Z,46.65
2023-01-09T20:13:01.014Z,46.54
2023-01-09T20:15:27.930Z,46.27
2023-01-09T20:17:54.909Z,46.17
2023-01-09T20:20:22.601Z,46.17
2023-01-09T20:22:49.683Z,45.96
2023-01-09T20:25:16.582Z,46.03
2023-01-09T20:27:43.416Z,45.98
2023-01-09T20:30:11.008Z,45.85
2023-01-09T20:32:38.426Z,45.58
2023-01-09T20:35:05.726Z,45.48
2023-01-09T20:37:32.761Z,45.11
2023-01-09T20:40:24.033Z,44.71
2023-01-09T20:42:51.684Z,44.49
2023-01-09T20:45:19.607Z,44.34
2023-01-09T20:47:47.610Z,44.25
2023-01-09T20:50:16.624Z,44.24
2023-01-09T20:52:44.804Z,44.20
2023-01-09T20:55:13.353Z,44.14
2023-01-09T20:57:43.516Z,44.13
2023-01-09T21:00:13.368Z,44.07
2023-01-09T21:02:40.935Z,44.05
2023-01-09T21:05:09.252Z,44.06
2023-01-09T21:07:37.777Z,44.07
2023-01-09T21:10:06.714Z,44.26
2023-01-09T21:12:38.604Z,44.24
2023-01-09T21:15:10.425Z,44.25
2023-01-09T21:17:40.937Z,44.30
2023-01-09T21:20:13.355Z,44.27
2023-01-09T21:22:42.549Z,44.31
2023-01-09T21:25:11.198Z,44.28
2023-01-09T21:27:42.920Z,44.32
2023-01-09T21:30:12.101Z,44.58
2023-01-09T21:32:39.780Z,44.45
2023-01-09T21:35:08.207Z,44.54
2023-01-09T21:37:38.774Z,44.61
2023-01-09T21:40:20.411Z,44.59
2023-01-09T21:43:07.277Z,44.53
2023-01-09T21:46:01.350Z,44.79
2023-01-09T21:48:30.238Z,45.09
2023-01-09T21:51:03.306Z,45.26
2023-01-09T21:53:31.291Z,45.81
2023-01-09T21:55:58.554Z,46.04
2023-01-09T21:58:25.425Z,46.25
2023-01-09T22:00:57.533Z,46.47
2023-01-09T22:03:24.660Z,46.38
2023-01-09T22:05:51.600Z,46.75
2023-01-09T22:08:19.178Z,47.19
2023-01-09T22:10:55.761Z,47.11
2023-01-09T22:13:22.581Z,47.01
2023-01-09T22:15:50.040Z,47.19
2023-01-09T22:18:16.868Z,48.86
2023-01-09T22:20:45.562Z,49.03
2023-01-09T22:23:12.454Z,49.37
2023-01-09T22:25:39.717Z,49.68
2023-01-09T22:28:06.519Z,49.20
2023-01-09T22:30:33.486Z,50.05
2023-01-09T22:33:00.714Z,49.39
2023-01-09T22:35:27.452Z,49.63
2023-01-09T22:37:54.384Z,50.08
2023-01-09T22:40:21.320Z,50.72
2023-01-09T22:42:52.964Z,50.48
2023-01-09T22:45:20.089Z,50.67
2023-01-09T22:47:48.667Z,51.49
2023-01-09T22:50:17.906Z,51.72
2023-01-09T22:52:44.731Z,51.59
2023-01-09T22:55:11.530Z,51.37
2023-01-09T22:57:38.297Z,51.29
2023-01-09T23:00:08.089Z,51.32
2023-01-09T23:02:35.465Z,51.46
2023-01-09T23:05:02.353Z,51.45
2023-01-09T23:07:29.235Z,52.78
2023-01-09T23:09:57.105Z,52.84
2023-01-09T23:12:24.030Z,52.53
2023-01-09T23:14:50.806Z,52.91
2023-01-09T23:17:17.739Z,53.29
2023-01-09T23:19:44.570Z,53.79
2023-01-09T23:22:11.404Z,53.56
2023-01-09T23:24:38.201Z,53.94
2023-01-09T23:27:05.149Z,54.14
2023-01-09T23:29:31.895Z,54.01
2023-01-09T23:31:58.771Z,53.75
2023-01-09T23:34:27.601Z,53.50
2023-01-09T23:36:57.421Z,54.07
2023-01-09T23:39:24.453Z,55.13
2023-01-09T23:42:09.762Z,54.77
2023-01-09T23:44:36.544Z,54.47
2023-01-09T23:47:03.602Z,54.43
2023-01-09T23:49:30.470Z,55.04
2023-01-09T23:51:57.381Z,55.12
2023-01-09T23:54:25.343Z,54.78
2023-01-09T23:56:53.437Z,55.07
2023-01-09T23:59:20.280Z,55.20
